sensor_id;sensor_type;location;lat;lon;timestamp;pressure;altitude;pressure_sealevel;temperature;humidity
68807;BME280;55800;54.272;18.558;2023-06-10T00:01:05;101342.19;;;17.89;53.04
68807;BME280;55800;54.272;18.558;2023-06-10T00:03:55;101332.19;;;17.90;53.03
68807;BME280;55800;54.272;18.558;2023-06-10T00:06:25;101341.28;;;17.89;53.78
68807;BME280;55800;54.272;18.558;2023-06-10T00:08:54;101330.66;;;17.86;53.90
68807;BME280;55800;54.272;18.558;2023-06-10T00:11:23;101339.91;;;17.82;54.59
68807;BME280;55800;54.272;18.558;2023-06-10T00:13:53;101337.81;;;17.87;52.89
68807;BME280;55800;54.272;18.558;2023-06-10T00:16:23;101343.03;;;17.90;52.71
68807;BME280;55800;54.272;18.558;2023-06-10T00:18:53;101355.09;;;17.84;53.58
68807;BME280;55800;54.272;18.558;2023-06-10T00:21:28;101350.56;;;17.85;52.54
68807;BME280;55800;54.272;18.558;2023-06-10T00:23:58;101348.75;;;17.85;52.49
68807;BME280;55800;54.272;18.558;2023-06-10T00:26:30;101346.19;;;17.82;52.98
68807;BME280;55800;54.272;18.558;2023-06-10T00:29:00;101353.44;;;17.82;52.67
68807;BME280;55800;54.272;18.558;2023-06-10T00:31:31;101353.03;;;17.74;53.65
68807;BME280;55800;54.272;18.558;2023-06-10T00:34:00;101359.50;;;17.71;52.60
68807;BME280;55800;54.272;18.558;2023-06-10T00:36:31;101342.22;;;17.74;52.36
68807;BME280;55800;54.272;18.558;2023-06-10T00:39:01;101346.75;;;17.73;52.33
68807;BME280;55800;54.272;18.558;2023-06-10T00:41:30;101355.63;;;17.75;51.96
68807;BME280;55800;54.272;18.558;2023-06-10T00:44:02;101351.28;;;17.73;52.31
68807;BME280;55800;54.272;18.558;2023-06-10T00:46:32;101355.13;;;17.69;53.10
68807;BME280;55800;54.272;18.558;2023-06-10T00:49:02;101368.25;;;17.61;53.70
68807;BME280;55800;54.272;18.558;2023-06-10T00:51:31;101360.91;;;17.63;51.87
68807;BME280;55800;54.272;18.558;2023-06-10T00:54:01;101372.34;;;17.68;51.77
68807;BME280;55800;54.272;18.558;2023-06-10T00:56:31;101369.63;;;17.68;51.92
68807;BME280;55800;54.272;18.558;2023-06-10T00:59:01;101373.50;;;17.64;52.02
68807;BME280;55800;54.272;18.558;2023-06-10T01:01:32;101372.09;;;17.57;52.72
68807;BME280;55800;54.272;18.558;2023-06-10T01:04:03;101381.19;;;17.56;53.79
68807;BME280;55800;54.272;18.558;2023-06-10T01:06:39;101380.31;;;17.55;53.38
68807;BME280;55800;54.272;18.558;2023-06-10T01:09:23;101382.13;;;17.55;53.78
68807;BME280;55800;54.272;18.558;2023-06-10T01:12:05;101383.88;;;17.56;52.77
68807;BME280;55800;54.272;18.558;2023-06-10T01:14:37;101383.06;;;17.54;52.49
68807;BME280;55800;54.272;18.558;2023-06-10T01:17:14;101389.47;;;17.53;52.82
68807;BME280;55800;54.272;18.558;2023-06-10T01:19:54;101381.50;;;17.50;53.81
68807;BME280;55800;54.272;18.558;2023-06-10T01:22:26;101389.78;;;17.47;53.49
68807;BME280;55800;54.272;18.558;2023-06-10T01:24:56;101389.88;;;17.45;53.99
68807;BME280;55800;54.272;18.558;2023-06-10T01:27:30;101395.47;;;17.42;54.65
68807;BME280;55800;54.272;18.558;2023-06-10T01:30:07;101388.13;;;17.44;52.89
68807;BME280;55800;54.272;18.558;2023-06-10T01:32:44;101388.91;;;17.46;52.54
68807;BME280;55800;54.272;18.558;2023-06-10T01:35:16;101392.66;;;17.44;52.73
68807;BME280;55800;54.272;18.558;2023-06-10T01:37:47;101397.28;;;17.42;52.01
68807;BME280;55800;54.272;18.558;2023-06-10T01:40:18;101403.66;;;17.41;51.72
68807;BME280;55800;54.272;18.558;2023-06-10T01:42:48;101398.41;;;17.38;51.88
68807;BME280;55800;54.272;18.558;2023-06-10T01:45:18;101407.66;;;17.34;51.38
68807;BME280;55800;54.272;18.558;2023-06-10T01:47:47;101413.25;;;17.31;51.64
68807;BME280;55800;54.272;18.558;2023-06-10T01:50:16;101412.56;;;17.27;52.64
68807;BME280;55800;54.272;18.558;2023-06-10T01:52:47;101421.91;;;17.22;51.86
68807;BME280;55800;54.272;18.558;2023-06-10T01:55:16;101419.25;;;17.20;51.29
68807;BME280;55800;54.272;18.558;2023-06-10T01:57:45;101417.00;;;17.12;52.55
68807;BME280;55800;54.272;18.558;2023-06-10T02:00:16;101425.25;;;17.09;52.22
68807;BME280;55800;54.272;18.558;2023-06-10T02:02:45;101424.41;;;17.09;51.73
68807;BME280;55800;54.272;18.558;2023-06-10T02:05:15;101429.88;;;17.07;52.86
68807;BME280;55800;54.272;18.558;2023-06-10T02:07:44;101432.94;;;17.01;51.05
68807;BME280;55800;54.272;18.558;2023-06-10T02:10:15;101430.31;;;17.00;52.42
68807;BME280;55800;54.272;18.558;2023-06-10T02:12:45;101429.63;;;16.96;51.90
68807;BME280;55800;54.272;18.558;2023-06-10T02:15:14;101430.81;;;16.91;53.40
68807;BME280;55800;54.272;18.558;2023-06-10T02:17:45;101442.84;;;16.85;53.16
68807;BME280;55800;54.272;18.558;2023-06-10T02:20:17;101433.97;;;16.83;53.95
68807;BME280;55800;54.272;18.558;2023-06-10T02:22:46;101442.31;;;16.79;54.59
68807;BME280;55800;54.272;18.558;2023-06-10T02:25:17;101442.47;;;16.76;54.14
68807;BME280;55800;54.272;18.558;2023-06-10T02:27:46;101438.09;;;16.73;54.35
68807;BME280;55800;54.272;18.558;2023-06-10T02:33:47;101445.59;;;16.68;55.12
68807;BME280;55800;54.272;18.558;2023-06-10T02:36:17;101445.94;;;16.62;54.97
68807;BME280;55800;54.272;18.558;2023-06-10T02:38:46;101445.94;;;16.62;53.88
68807;BME280;55800;54.272;18.558;2023-06-10T02:41:17;101449.75;;;16.58;54.71
68807;BME280;55800;54.272;18.558;2023-06-10T02:43:47;101445.94;;;16.62;53.64
68807;BME280;55800;54.272;18.558;2023-06-10T02:46:17;101451.81;;;16.53;55.61
68807;BME280;55800;54.272;18.558;2023-06-10T02:48:46;101458.94;;;16.54;54.84
68807;BME280;55800;54.272;18.558;2023-06-10T02:51:21;101463.25;;;16.58;54.51
68807;BME280;55800;54.272;18.558;2023-06-10T02:53:56;101464.09;;;16.59;53.56
68807;BME280;55800;54.272;18.558;2023-06-10T02:56:27;101464.34;;;16.54;54.46
68807;BME280;55800;54.272;18.558;2023-06-10T02:58:59;101466.09;;;16.55;53.85
68807;BME280;55800;54.272;18.558;2023-06-10T03:01:31;101466.25;;;16.52;54.30
68807;BME280;55800;54.272;18.558;2023-06-10T03:04:04;101465.69;;;16.46;55.06
68807;BME280;55800;54.272;18.558;2023-06-10T03:06:35;101473.69;;;16.47;55.25
68807;BME280;55800;54.272;18.558;2023-06-10T03:09:21;101471.00;;;16.47;54.07
68807;BME280;55800;54.272;18.558;2023-06-10T03:11:56;101475.31;;;16.51;54.88
68807;BME280;55800;54.272;18.558;2023-06-10T03:14:25;101472.63;;;16.51;53.95
68807;BME280;55800;54.272;18.558;2023-06-10T03:16:55;101476.19;;;16.52;54.42
68807;BME280;55800;54.272;18.558;2023-06-10T03:19:25;101482.44;;;16.52;53.72
68807;BME280;55800;54.272;18.558;2023-06-10T03:22:06;101473.56;;;16.50;55.51
68807;BME280;55800;54.272;18.558;2023-06-10T03:24:39;101478.31;;;16.62;53.74
68807;BME280;55800;54.272;18.558;2023-06-10T03:27:12;101468.13;;;16.67;54.11
68807;BME280;55800;54.272;18.558;2023-06-10T03:29:44;101466.53;;;16.80;53.74
68807;BME280;55800;54.272;18.558;2023-06-10T03:32:14;101470.41;;;16.92;54.51
68807;BME280;55800;54.272;18.558;2023-06-10T03:34:44;101457.25;;;17.01;53.93
68807;BME280;55800;54.272;18.558;2023-06-10T03:37:15;101463.97;;;17.10;54.32
68807;BME280;55800;54.272;18.558;2023-06-10T03:39:47;101464.50;;;17.16;54.00
68807;BME280;55800;54.272;18.558;2023-06-10T03:42:18;101464.00;;;17.26;53.08
68807;BME280;55800;54.272;18.558;2023-06-10T03:44:48;101467.31;;;17.31;54.28
68807;BME280;55800;54.272;18.558;2023-06-10T03:47:17;101473.34;;;17.36;53.05
68807;BME280;55800;54.272;18.558;2023-06-10T03:49:47;101474.53;;;17.46;53.42
68807;BME280;55800;54.272;18.558;2023-06-10T03:52:18;101473.28;;;17.53;52.69
68807;BME280;55800;54.272;18.558;2023-06-10T03:54:47;101477.28;;;17.61;52.83
68807;BME280;55800;54.272;18.558;2023-06-10T03:57:18;101480.88;;;17.62;52.84
68807;BME280;55800;54.272;18.558;2023-06-10T03:59:47;101479.38;;;17.72;52.35
68807;BME280;55800;54.272;18.558;2023-06-10T04:02:17;101477.97;;;17.80;52.41
68807;BME280;55800;54.272;18.558;2023-06-10T04:04:46;101479.53;;;17.84;52.85
68807;BME280;55800;54.272;18.558;2023-06-10T04:07:15;101484.16;;;17.82;52.70
68807;BME280;55800;54.272;18.558;2023-06-10T04:09:47;101484.78;;;17.87;52.31
68807;BME280;55800;54.272;18.558;2023-06-10T04:12:18;101479.59;;;17.99;52.03
68807;BME280;55800;54.272;18.558;2023-06-10T04:14:47;101481.78;;;18.08;51.33
68807;BME280;55800;54.272;18.558;2023-06-10T04:17:17;101489.78;;;18.09;52.04
68807;BME280;55800;54.272;18.558;2023-06-10T04:19:46;101494.88;;;18.15;51.91
68807;BME280;55800;54.272;18.558;2023-06-10T04:22:15;101495.66;;;18.17;51.79
68807;BME280;55800;54.272;18.558;2023-06-10T04:24:45;101492.56;;;18.23;51.70
68807;BME280;55800;54.272;18.558;2023-06-10T04:27:15;101495.16;;;18.25;51.71
68807;BME280;55800;54.272;18.558;2023-06-10T04:29:46;101494.81;;;18.31;51.46
68807;BME280;55800;54.272;18.558;2023-06-10T04:32:15;101494.34;;;18.38;51.24
68807;BME280;55800;54.272;18.558;2023-06-10T04:34:45;101494.94;;;18.43;51.11
68807;BME280;55800;54.272;18.558;2023-06-10T04:37:15;101505.72;;;18.45;51.25
68807;BME280;55800;54.272;18.558;2023-06-10T04:39:44;101511.91;;;18.47;51.13
68807;BME280;55800;54.272;18.558;2023-06-10T04:42:14;101513.84;;;18.45;51.19
68807;BME280;55800;54.272;18.558;2023-06-10T04:44:45;101508.84;;;18.37;51.51
68807;BME280;55800;54.272;18.558;2023-06-10T04:47:15;101515.31;;;18.35;51.68
68807;BME280;55800;54.272;18.558;2023-06-10T04:49:46;101512.16;;;18.42;51.28
68807;BME280;55800;54.272;18.558;2023-06-10T04:52:15;101516.59;;;18.59;51.04
68807;BME280;55800;54.272;18.558;2023-06-10T04:54:46;101524.22;;;18.66;50.88
68807;BME280;55800;54.272;18.558;2023-06-10T04:57:16;101515.16;;;18.67;50.83
68807;BME280;55800;54.272;18.558;2023-06-10T04:59:47;101508.41;;;18.75;50.62
68807;BME280;55800;54.272;18.558;2023-06-10T05:02:17;101514.78;;;18.74;50.68
68807;BME280;55800;54.272;18.558;2023-06-10T05:04:46;101521.16;;;18.73;50.65
68807;BME280;55800;54.272;18.558;2023-06-10T05:07:15;101519.81;;;18.80;50.63
68807;BME280;55800;54.272;18.558;2023-06-10T05:09:44;101526.88;;;18.82;50.74
68807;BME280;55800;54.272;18.558;2023-06-10T05:12:14;101535.78;;;18.84;50.47
68807;BME280;55800;54.272;18.558;2023-06-10T05:14:43;101528.72;;;18.82;50.60
68807;BME280;55800;54.272;18.558;2023-06-10T05:17:14;101536.78;;;18.83;50.18
68807;BME280;55800;54.272;18.558;2023-06-10T05:19:43;101536.28;;;18.91;49.97
68807;BME280;55800;54.272;18.558;2023-06-10T05:22:13;101544.31;;;18.92;49.95
68807;BME280;55800;54.272;18.558;2023-06-10T05:24:44;101548.06;;;18.90;49.89
68807;BME280;55800;54.272;18.558;2023-06-10T05:27:13;101545.56;;;18.87;49.78
68807;BME280;55800;54.272;18.558;2023-06-10T05:29:42;101546.47;;;18.87;49.76
68807;BME280;55800;54.272;18.558;2023-06-10T05:32:14;101547.50;;;18.85;49.54
68807;BME280;55800;54.272;18.558;2023-06-10T05:34:44;101540.31;;;18.84;49.59
68807;BME280;55800;54.272;18.558;2023-06-10T05:37:13;101552.53;;;18.91;49.63
68807;BME280;55800;54.272;18.558;2023-06-10T05:39:42;101549.16;;;18.87;49.43
68807;BME280;55800;54.272;18.558;2023-06-10T05:42:12;101547.22;;;18.89;49.42
68807;BME280;55800;54.272;18.558;2023-06-10T05:44:42;101558.13;;;18.88;49.40
68807;BME280;55800;54.272;18.558;2023-06-10T05:47:11;101552.44;;;18.92;49.27
68807;BME280;55800;54.272;18.558;2023-06-10T05:49:43;101546.47;;;19.01;49.07
68807;BME280;55800;54.272;18.558;2023-06-10T05:52:14;101553.59;;;19.02;48.83
68807;BME280;55800;54.272;18.558;2023-06-10T05:54:42;101560.13;;;19.00;48.95
68807;BME280;55800;54.272;18.558;2023-06-10T05:57:12;101562.06;;;18.98;48.93
68807;BME280;55800;54.272;18.558;2023-06-10T05:59:41;101559.13;;;19.01;48.76
68807;BME280;55800;54.272;18.558;2023-06-10T06:02:11;101566.03;;;19.06;48.59
68807;BME280;55800;54.272;18.558;2023-06-10T06:04:39;101564.16;;;19.07;48.08
68807;BME280;55800;54.272;18.558;2023-06-10T06:07:10;101569.53;;;19.08;48.45
68807;BME280;55800;54.272;18.558;2023-06-10T06:09:41;101575.44;;;19.15;48.44
68807;BME280;55800;54.272;18.558;2023-06-10T06:12:12;101579.41;;;19.23;48.08
68807;BME280;55800;54.272;18.558;2023-06-10T06:14:40;101575.13;;;19.19;47.90
68807;BME280;55800;54.272;18.558;2023-06-10T06:17:10;101576.78;;;19.22;48.05
68807;BME280;55800;54.272;18.558;2023-06-10T06:19:39;101573.13;;;19.23;48.21
68807;BME280;55800;54.272;18.558;2023-06-10T06:22:09;101576.22;;;19.31;48.42
68807;BME280;55800;54.272;18.558;2023-06-10T06:24:38;101573.50;;;19.31;47.61
68807;BME280;55800;54.272;18.558;2023-06-10T06:27:08;101581.38;;;19.35;47.74
68807;BME280;55800;54.272;18.558;2023-06-10T06:29:38;101581.94;;;19.40;47.32
68807;BME280;55800;54.272;18.558;2023-06-10T06:32:08;101575.28;;;19.46;47.32
68807;BME280;55800;54.272;18.558;2023-06-10T06:34:38;101584.09;;;19.50;47.18
68807;BME280;55800;54.272;18.558;2023-06-10T06:37:07;101585.34;;;19.58;47.45
68807;BME280;55800;54.272;18.558;2023-06-10T06:39:42;101586.69;;;19.65;47.26
68807;BME280;55800;54.272;18.558;2023-06-10T06:42:11;101582.91;;;19.68;47.17
68807;BME280;55800;54.272;18.558;2023-06-10T06:44:56;101587.19;;;19.72;47.15
68807;BME280;55800;54.272;18.558;2023-06-10T06:47:26;101595.88;;;19.77;47.19
68807;BME280;55800;54.272;18.558;2023-06-10T06:49:55;101600.34;;;19.78;46.93
68807;BME280;55800;54.272;18.558;2023-06-10T06:52:24;101595.78;;;19.78;46.72
68807;BME280;55800;54.272;18.558;2023-06-10T06:54:54;101595.41;;;19.84;46.78
68807;BME280;55800;54.272;18.558;2023-06-10T06:57:24;101610.28;;;19.91;47.17
68807;BME280;55800;54.272;18.558;2023-06-10T06:59:53;101610.22;;;19.93;47.05
68807;BME280;55800;54.272;18.558;2023-06-10T07:02:22;101613.59;;;19.96;46.78
68807;BME280;55800;54.272;18.558;2023-06-10T07:04:51;101617.28;;;19.95;46.83
68807;BME280;55800;54.272;18.558;2023-06-10T07:07:23;101619.91;;;19.97;46.42
68807;BME280;55800;54.272;18.558;2023-06-10T07:09:52;101615.06;;;20.02;46.90
68807;BME280;55800;54.272;18.558;2023-06-10T07:12:23;101624.41;;;20.10;47.07
68807;BME280;55800;54.272;18.558;2023-06-10T07:14:52;101630.41;;;20.15;46.43
68807;BME280;55800;54.272;18.558;2023-06-10T07:17:22;101635.66;;;20.18;46.85
68807;BME280;55800;54.272;18.558;2023-06-10T07:19:51;101630.22;;;20.18;46.42
68807;BME280;55800;54.272;18.558;2023-06-10T07:22:20;101639.19;;;20.20;46.19
68807;BME280;55800;54.272;18.558;2023-06-10T07:24:49;101633.75;;;20.20;46.03
68807;BME280;55800;54.272;18.558;2023-06-10T07:27:20;101640.91;;;20.21;46.04
68807;BME280;55800;54.272;18.558;2023-06-10T07:29:50;101642.81;;;20.19;45.98
68807;BME280;55800;54.272;18.558;2023-06-10T07:32:19;101640.50;;;20.28;46.04
68807;BME280;55800;54.272;18.558;2023-06-10T07:34:52;101634.00;;;20.30;45.58
68807;BME280;55800;54.272;18.558;2023-06-10T07:37:21;101637.91;;;20.26;45.62
68807;BME280;55800;54.272;18.558;2023-06-10T07:39:50;101633.34;;;20.27;45.27
68807;BME280;55800;54.272;18.558;2023-06-10T07:42:20;101629.56;;;20.29;45.53
68807;BME280;55800;54.272;18.558;2023-06-10T07:44:50;101634.69;;;20.34;45.49
68807;BME280;55800;54.272;18.558;2023-06-10T07:47:20;101642.63;;;20.37;45.78
68807;BME280;55800;54.272;18.558;2023-06-10T07:49:49;101641.38;;;20.42;45.92
68807;BME280;55800;54.272;18.558;2023-06-10T07:52:19;101643.66;;;20.48;46.32
68807;BME280;55800;54.272;18.558;2023-06-10T07:54:48;101638.66;;;20.42;46.54
68807;BME280;55800;54.272;18.558;2023-06-10T07:57:18;101642.13;;;20.44;46.54
68807;BME280;55800;54.272;18.558;2023-06-10T07:59:47;101644.97;;;20.55;47.02
68807;BME280;55800;54.272;18.558;2023-06-10T08:02:18;101637.84;;;20.67;46.41
68807;BME280;55800;54.272;18.558;2023-06-10T08:04:51;101637.56;;;20.71;46.10
68807;BME280;55800;54.272;18.558;2023-06-10T08:07:20;101646.03;;;20.79;45.92
68807;BME280;55800;54.272;18.558;2023-06-10T08:09:49;101635.28;;;20.78;45.48
68807;BME280;55800;54.272;18.558;2023-06-10T08:12:19;101652.03;;;20.72;44.77
68807;BME280;55800;54.272;18.558;2023-06-10T08:14:49;101648.13;;;20.76;45.48
68807;BME280;55800;54.272;18.558;2023-06-10T08:17:19;101651.28;;;20.82;45.34
68807;BME280;55800;54.272;18.558;2023-06-10T08:19:48;101652.47;;;20.91;45.36
68807;BME280;55800;54.272;18.558;2023-06-10T08:22:18;101654.44;;;20.89;44.61
68807;BME280;55800;54.272;18.558;2023-06-10T08:24:47;101651.38;;;20.81;45.01
68807;BME280;55800;54.272;18.558;2023-06-10T08:27:16;101662.25;;;20.81;44.98
68807;BME280;55800;54.272;18.558;2023-06-10T08:29:46;101667.50;;;20.84;44.73
68807;BME280;55800;54.272;18.558;2023-06-10T08:32:15;101658.56;;;20.82;44.31
68807;BME280;55800;54.272;18.558;2023-06-10T08:34:46;101658.34;;;20.85;44.05
68807;BME280;55800;54.272;18.558;2023-06-10T08:37:15;101663.78;;;20.85;44.27
68807;BME280;55800;54.272;18.558;2023-06-10T08:39:44;101655.72;;;20.83;44.45
68807;BME280;55800;54.272;18.558;2023-06-10T08:42:21;101659.09;;;20.87;44.53
68807;BME280;55800;54.272;18.558;2023-06-10T08:44:54;101656.38;;;20.87;44.38
68807;BME280;55800;54.272;18.558;2023-06-10T08:47:25;101650.88;;;20.88;43.72
68807;BME280;55800;54.272;18.558;2023-06-10T08:50:02;101651.41;;;20.93;44.06
68807;BME280;55800;54.272;18.558;2023-06-10T08:52:36;101654.44;;;20.89;44.22
68807;BME280;55800;54.272;18.558;2023-06-10T08:55:13;101655.75;;;20.96;44.33
68807;BME280;55800;54.272;18.558;2023-06-10T08:57:44;101657.91;;;21.05;44.12
68807;BME280;55800;54.272;18.558;2023-06-10T09:00:16;101662.56;;;21.03;44.57
68807;BME280;55800;54.272;18.558;2023-06-10T09:02:47;101667.78;;;21.06;44.45
68807;BME280;55800;54.272;18.558;2023-06-10T09:05:18;101657.78;;;21.07;44.25
68807;BME280;55800;54.272;18.558;2023-06-10T09:07:49;101661.16;;;21.10;43.80
68807;BME280;55800;54.272;18.558;2023-06-10T09:10:19;101668.16;;;21.14;43.02
68807;BME280;55800;54.272;18.558;2023-06-10T09:12:49;101664.88;;;21.09;43.22
68807;BME280;55800;54.272;18.558;2023-06-10T09:15:18;101668.34;;;21.11;43.16
68807;BME280;55800;54.272;18.558;2023-06-10T09:17:48;101653.44;;;21.17;43.65
68807;BME280;55800;54.272;18.558;2023-06-10T09:20:19;101662.59;;;21.16;43.84
68807;BME280;55800;54.272;18.558;2023-06-10T09:22:49;101661.94;;;21.12;43.77
68807;BME280;55800;54.272;18.558;2023-06-10T09:25:18;101663.44;;;21.04;43.11
68807;BME280;55800;54.272;18.558;2023-06-10T09:27:48;101654.09;;;21.08;43.47
68807;BME280;55800;54.272;18.558;2023-06-10T09:30:25;101665.97;;;21.19;43.29
68807;BME280;55800;54.272;18.558;2023-06-10T09:32:57;101665.53;;;21.25;43.72
68807;BME280;55800;54.272;18.558;2023-06-10T09:35:29;101661.84;;;21.26;43.44
68807;BME280;55800;54.272;18.558;2023-06-10T09:37:59;101666.28;;;21.27;43.48
68807;BME280;55800;54.272;18.558;2023-06-10T09:40:30;101667.16;;;21.28;43.10
68807;BME280;55800;54.272;18.558;2023-06-10T09:43:00;101668.03;;;21.28;42.96
68807;BME280;55800;54.272;18.558;2023-06-10T09:45:30;101671.97;;;21.24;42.72
68807;BME280;55800;54.272;18.558;2023-06-10T09:48:01;101673.81;;;21.24;42.77
68807;BME280;55800;54.272;18.558;2023-06-10T09:50:37;101675.00;;;21.20;43.52
68807;BME280;55800;54.272;18.558;2023-06-10T09:53:10;101685.00;;;21.19;43.95
68807;BME280;55800;54.272;18.558;2023-06-10T09:55:40;101671.97;;;21.24;44.21
68807;BME280;55800;54.272;18.558;2023-06-10T09:58:11;101667.16;;;21.28;43.81
68807;BME280;55800;54.272;18.558;2023-06-10T10:00:40;101678.16;;;21.26;43.81
68807;BME280;55800;54.272;18.558;2023-06-10T10:03:09;101670.19;;;21.23;43.91
68807;BME280;55800;54.272;18.558;2023-06-10T10:05:40;101673.69;;;21.38;44.17
68807;BME280;55800;54.272;18.558;2023-06-10T10:08:10;101675.34;;;21.40;43.18
68807;BME280;55800;54.272;18.558;2023-06-10T10:10:39;101670.03;;;21.39;43.02
68807;BME280;55800;54.272;18.558;2023-06-10T10:13:08;101671.97;;;21.37;42.51
68807;BME280;55800;54.272;18.558;2023-06-10T10:15:38;101678.28;;;21.37;43.28
68807;BME280;55800;54.272;18.558;2023-06-10T10:18:11;101685.25;;;21.41;43.18
68807;BME280;55800;54.272;18.558;2023-06-10T10:20:47;101677.09;;;21.41;43.21
68807;BME280;55800;54.272;18.558;2023-06-10T10:23:24;101680.47;;;21.45;43.18
68807;BME280;55800;54.272;18.558;2023-06-10T10:25:55;101667.63;;;21.47;43.32
68807;BME280;55800;54.272;18.558;2023-06-10T10:28:33;101670.97;;;21.50;43.21
68807;BME280;55800;54.272;18.558;2023-06-10T10:31:09;101662.41;;;21.56;43.16
68807;BME280;55800;54.272;18.558;2023-06-10T10:33:45;101669.47;;;21.59;42.91
68807;BME280;55800;54.272;18.558;2023-06-10T10:36:20;101666.41;;;21.63;43.13
68807;BME280;55800;54.272;18.558;2023-06-10T10:38:49;101665.22;;;21.67;43.37
68807;BME280;55800;54.272;18.558;2023-06-10T10:41:20;101666.34;;;21.65;42.99
68807;BME280;55800;54.272;18.558;2023-06-10T10:43:51;101661.53;;;21.68;43.29
68807;BME280;55800;54.272;18.558;2023-06-10T10:46:21;101668.19;;;21.64;42.21
68807;BME280;55800;54.272;18.558;2023-06-10T10:48:53;101666.78;;;21.71;42.91
68807;BME280;55800;54.272;18.558;2023-06-10T10:51:24;101674.38;;;21.66;42.54
68807;BME280;55800;54.272;18.558;2023-06-10T10:54:13;101663.50;;;21.66;42.39
68807;BME280;55800;54.272;18.558;2023-06-10T10:57:09;101677.66;;;21.71;42.63
68807;BME280;55800;54.272;18.558;2023-06-10T10:59:54;101681.91;;;21.75;42.42
68807;BME280;55800;54.272;18.558;2023-06-10T11:02:35;101671.53;;;21.81;42.44
68807;BME280;55800;54.272;18.558;2023-06-10T11:05:08;101679.81;;;21.79;42.33
68807;BME280;55800;54.272;18.558;2023-06-10T11:07:40;101674.19;;;21.82;42.50
68807;BME280;55800;54.272;18.558;2023-06-10T11:10:11;101672.75;;;21.89;42.42
68807;BME280;55800;54.272;18.558;2023-06-10T11:12:49;101673.50;;;21.91;41.81
68807;BME280;55800;54.272;18.558;2023-06-10T11:15:19;101668.63;;;21.96;42.21
68807;BME280;55800;54.272;18.558;2023-06-10T11:18:12;101678.09;;;22.03;42.67
68807;BME280;55800;54.272;18.558;2023-06-10T11:20:56;101671.78;;;22.03;42.38
68807;BME280;55800;54.272;18.558;2023-06-10T11:23:41;101670.69;;;22.05;41.59
68807;BME280;55800;54.272;18.558;2023-06-10T11:26:18;101662.38;;;22.07;40.98
68807;BME280;55800;54.272;18.558;2023-06-10T11:29:08;101670.09;;;22.13;41.34
68807;BME280;55800;54.272;18.558;2023-06-10T11:31:43;101662.66;;;22.27;40.72
68807;BME280;55800;54.272;18.558;2023-06-10T11:34:13;101666.59;;;22.23;41.33
68807;BME280;55800;54.272;18.558;2023-06-10T11:36:44;101654.94;;;22.21;40.50
68807;BME280;55800;54.272;18.558;2023-06-10T11:39:15;101673.47;;;22.16;40.42
68807;BME280;55800;54.272;18.558;2023-06-10T11:41:46;101672.50;;;22.17;40.58
68807;BME280;55800;54.272;18.558;2023-06-10T11:44:15;101658.25;;;22.14;39.92
68807;BME280;55800;54.272;18.558;2023-06-10T11:46:48;101666.72;;;22.22;40.85
68807;BME280;55800;54.272;18.558;2023-06-10T11:49:21;101660.81;;;22.28;40.27
68807;BME280;55800;54.272;18.558;2023-06-10T11:51:50;101662.78;;;22.26;40.09
68807;BME280;55800;54.272;18.558;2023-06-10T11:54:21;101667.56;;;22.35;39.53
68807;BME280;55800;54.272;18.558;2023-06-10T11:56:56;101661.22;;;22.34;40.25
68807;BME280;55800;54.272;18.558;2023-06-10T11:59:28;101666.84;;;22.44;40.75
68807;BME280;55800;54.272;18.558;2023-06-10T12:01:57;101670.56;;;22.43;39.91
68807;BME280;55800;54.272;18.558;2023-06-10T12:04:27;101676.78;;;22.45;40.72
68807;BME280;55800;54.272;18.558;2023-06-10T12:06:56;101669.22;;;22.48;40.72
68807;BME280;55800;54.272;18.558;2023-06-10T12:09:28;101666.41;;;22.50;39.91
68807;BME280;55800;54.272;18.558;2023-06-10T12:11:59;101670.66;;;22.54;40.27
68807;BME280;55800;54.272;18.558;2023-06-10T12:14:51;101670.31;;;22.59;39.67
68807;BME280;55800;54.272;18.558;2023-06-10T12:17:36;101674.66;;;22.61;40.26
68807;BME280;55800;54.272;18.558;2023-06-10T12:20:07;101666.00;;;22.67;40.03
68807;BME280;55800;54.272;18.558;2023-06-10T12:22:38;101673.75;;;22.73;39.60
68807;BME280;55800;54.272;18.558;2023-06-10T12:25:10;101668.19;;;22.75;40.10
68807;BME280;55800;54.272;18.558;2023-06-10T12:27:50;101674.94;;;22.69;39.61
68807;BME280;55800;54.272;18.558;2023-06-10T12:30:23;101679.44;;;22.70;40.26
68807;BME280;55800;54.272;18.558;2023-06-10T12:32:53;101676.34;;;22.75;40.46
68807;BME280;55800;54.272;18.558;2023-06-10T12:35:24;101683.44;;;22.77;40.11
68807;BME280;55800;54.272;18.558;2023-06-10T12:37:59;101680.72;;;22.77;40.74
68807;BME280;55800;54.272;18.558;2023-06-10T12:40:31;101672.94;;;22.84;40.11
68807;BME280;55800;54.272;18.558;2023-06-10T12:43:01;101672.28;;;22.80;40.53
68807;BME280;55800;54.272;18.558;2023-06-10T12:45:31;101684.66;;;22.73;40.37
68807;BME280;55800;54.272;18.558;2023-06-10T12:48:09;101686.38;;;22.74;40.57
68807;BME280;55800;54.272;18.558;2023-06-10T12:50:39;101670.03;;;22.74;40.56
68807;BME280;55800;54.272;18.558;2023-06-10T12:53:11;101668.06;;;22.76;40.38
68807;BME280;55800;54.272;18.558;2023-06-10T12:55:41;101678.75;;;22.79;40.22
68807;BME280;55800;54.272;18.558;2023-06-10T12:58:13;101680.47;;;22.80;40.34
68807;BME280;55800;54.272;18.558;2023-06-10T13:00:42;101678.47;;;22.82;40.26
68807;BME280;55800;54.272;18.558;2023-06-10T13:03:12;101666.72;;;22.82;40.38
68807;BME280;55800;54.272;18.558;2023-06-10T13:05:41;101672.56;;;22.88;40.39